sensor_id;sensor_type;location;lat;lon;timestamp;P1;durP1;ratioP1;P2;durP2;ratioP2
44508;SDS011;30214;52.246;14.408;2023-03-29T00:01:07;5.68;;;2.72;;
44508;SDS011;30214;52.246;14.408;2023-03-29T00:03:40;7.03;;;2.70;;
44508;SDS011;30214;52.246;14.408;2023-03-29T00:06:16;5.25;;;2.40;;
44508;SDS011;30214;52.246;14.408;2023-03-29T00:08:51;5.10;;;2.42;;
44508;SDS011;30214;52.246;14.408;2023-03-29T00:11:23;4.55;;;2.33;;
44508;SDS011;30214;52.246;14.408;2023-03-29T00:14:01;6.45;;;2.33;;
44508;SDS011;30214;52.246;14.408;2023-03-29T00:16:34;4.40;;;2.10;;
44508;SDS011;30214;52.246;14.408;2023-03-29T00:19:05;8.02;;;2.53;;
44508;SDS011;30214;52.246;14.408;2023-03-29T00:21:52;7.00;;;2.90;;
44508;SDS011;30214;52.246;14.408;2023-03-29T00:24:25;5.53;;;2.63;;
44508;SDS011;30214;52.246;14.408;2023-03-29T00:26:54;3.40;;;1.80;;
44508;SDS011;30214;52.246;14.408;2023-03-29T00:29:32;3.08;;;1.55;;
44508;SDS011;30214;52.246;14.408;2023-03-29T00:32:02;3.63;;;1.95;;
44508;SDS011;30214;52.246;14.408;2023-03-29T00:34:34;3.15;;;1.42;;
44508;SDS011;30214;52.246;14.408;2023-03-29T00:37:09;4.05;;;1.80;;
44508;SDS011;30214;52.246;14.408;2023-03-29T00:39:45;4.03;;;1.77;;
44508;SDS011;30214;52.246;14.408;2023-03-29T00:42:21;3.15;;;1.60;;
44508;SDS011;30214;52.246;14.408;2023-03-29T00:44:59;2.70;;;1.35;;
44508;SDS011;30214;52.246;14.408;2023-03-29T00:47:44;5.00;;;1.55;;
44508;SDS011;30214;52.246;14.408;2023-03-29T00:50:21;4.68;;;1.80;;
44508;SDS011;30214;52.246;14.408;2023-03-29T00:53:02;3.55;;;1.60;;
44508;SDS011;30214;52.246;14.408;2023-03-29T00:55:47;4.00;;;1.90;;
44508;SDS011;30214;52.246;14.408;2023-03-29T00:58:25;3.95;;;1.83;;
44508;SDS011;30214;52.246;14.408;2023-03-29T01:01:05;4.88;;;1.83;;
44508;SDS011;30214;52.246;14.408;2023-03-29T01:03:49;3.90;;;1.80;;
44508;SDS011;30214;52.246;14.408;2023-03-29T01:06:26;3.47;;;1.70;;
44508;SDS011;30214;52.246;14.408;2023-03-29T01:08:58;3.10;;;1.58;;
44508;SDS011;30214;52.246;14.408;2023-03-29T01:11:36;6.43;;;1.90;;
44508;SDS011;30214;52.246;14.408;2023-03-29T01:14:22;3.70;;;1.90;;
44508;SDS011;30214;52.246;14.408;2023-03-29T01:17:20;4.22;;;1.80;;
44508;SDS011;30214;52.246;14.408;2023-03-29T01:19:58;6.43;;;1.70;;
44508;SDS011;30214;52.246;14.408;2023-03-29T01:22:37;6.57;;;2.33;;
44508;SDS011;30214;52.246;14.408;2023-03-29T01:25:28;3.97;;;2.15;;
44508;SDS011;30214;52.246;14.408;2023-03-29T01:31:01;2.97;;;2.00;;
44508;SDS011;30214;52.246;14.408;2023-03-29T01:33:39;4.93;;;1.70;;
44508;SDS011;30214;52.246;14.408;2023-03-29T01:36:21;7.05;;;1.90;;
44508;SDS011;30214;52.246;14.408;2023-03-29T01:39:01;3.38;;;2.05;;
44508;SDS011;30214;52.246;14.408;2023-03-29T01:41:39;4.60;;;2.33;;
44508;SDS011;30214;52.246;14.408;2023-03-29T01:44:26;4.53;;;2.05;;
44508;SDS011;30214;52.246;14.408;2023-03-29T01:47:03;3.63;;;2.05;;
44508;SDS011;30214;52.246;14.408;2023-03-29T01:49:40;3.42;;;1.95;;
44508;SDS011;30214;52.246;14.408;2023-03-29T01:52:22;4.50;;;2.53;;
44508;SDS011;30214;52.246;14.408;2023-03-29T01:55:02;4.10;;;2.20;;
44508;SDS011;30214;52.246;14.408;2023-03-29T01:57:43;8.52;;;2.60;;
44508;SDS011;30214;52.246;14.408;2023-03-29T02:00:24;5.72;;;2.60;;
44508;SDS011;30214;52.246;14.408;2023-03-29T02:03:02;4.72;;;2.40;;
44508;SDS011;30214;52.246;14.408;2023-03-29T02:05:36;7.22;;;2.42;;
44508;SDS011;30214;52.246;14.408;2023-03-29T02:08:08;8.40;;;2.47;;
44508;SDS011;30214;52.246;14.408;2023-03-29T02:10:46;6.40;;;2.40;;
44508;SDS011;30214;52.246;14.408;2023-03-29T02:13:20;5.13;;;2.30;;
44508;SDS011;30214;52.246;14.408;2023-03-29T02:15:54;5.13;;;2.17;;
44508;SDS011;30214;52.246;14.408;2023-03-29T02:18:33;3.88;;;2.28;;
44508;SDS011;30214;52.246;14.408;2023-03-29T02:21:07;6.93;;;2.75;;
44508;SDS011;30214;52.246;14.408;2023-03-29T02:23:47;4.70;;;2.50;;
44508;SDS011;30214;52.246;14.408;2023-03-29T02:26:21;4.35;;;2.80;;
44508;SDS011;30214;52.246;14.408;2023-03-29T02:28:53;9.13;;;2.72;;
44508;SDS011;30214;52.246;14.408;2023-03-29T02:31:35;3.20;;;1.95;;
44508;SDS011;30214;52.246;14.408;2023-03-29T02:34:14;3.92;;;2.13;;
44508;SDS011;30214;52.246;14.408;2023-03-29T02:37:07;7.85;;;2.30;;
44508;SDS011;30214;52.246;14.408;2023-03-29T02:39:46;5.63;;;2.35;;
44508;SDS011;30214;52.246;14.408;2023-03-29T02:42:21;7.30;;;2.60;;
44508;SDS011;30214;52.246;14.408;2023-03-29T02:44:56;13.13;;;3.55;;
44508;SDS011;30214;52.246;14.408;2023-03-29T02:47:32;6.18;;;2.88;;
44508;SDS011;30214;52.246;14.408;2023-03-29T02:50:09;11.50;;;3.60;;
44508;SDS011;30214;52.246;14.408;2023-03-29T02:52:43;9.90;;;3.58;;
44508;SDS011;30214;52.246;14.408;2023-03-29T02:55:22;5.63;;;3.30;;
44508;SDS011;30214;52.246;14.408;2023-03-29T02:58:00;6.20;;;3.25;;
44508;SDS011;30214;52.246;14.408;2023-03-29T03:00:35;8.52;;;3.25;;
44508;SDS011;30214;52.246;14.408;2023-03-29T03:03:11;6.38;;;3.22;;
44508;SDS011;30214;52.246;14.408;2023-03-29T03:05:45;7.47;;;3.00;;
44508;SDS011;30214;52.246;14.408;2023-03-29T03:08:18;9.57;;;3.55;;
44508;SDS011;30214;52.246;14.408;2023-03-29T03:10:58;9.70;;;3.67;;
44508;SDS011;30214;52.246;14.408;2023-03-29T03:13:36;9.93;;;3.55;;
44508;SDS011;30214;52.246;14.408;2023-03-29T03:16:13;9.23;;;3.90;;
44508;SDS011;30214;52.246;14.408;2023-03-29T03:18:51;9.85;;;3.75;;
44508;SDS011;30214;52.246;14.408;2023-03-29T03:21:28;10.38;;;4.38;;
44508;SDS011;30214;52.246;14.408;2023-03-29T03:24:01;12.25;;;4.30;;
44508;SDS011;30214;52.246;14.408;2023-03-29T03:26:33;10.57;;;4.45;;
44508;SDS011;30214;52.246;14.408;2023-03-29T03:29:07;9.98;;;3.90;;
44508;SDS011;30214;52.246;14.408;2023-03-29T03:31:58;12.68;;;4.20;;
44508;SDS011;30214;52.246;14.408;2023-03-29T03:34:57;10.32;;;4.60;;
44508;SDS011;30214;52.246;14.408;2023-03-29T03:37:29;12.23;;;4.72;;
44508;SDS011;30214;52.246;14.408;2023-03-29T03:40:13;10.13;;;4.30;;
44508;SDS011;30214;52.246;14.408;2023-03-29T03:42:52;11.48;;;5.28;;
44508;SDS011;30214;52.246;14.408;2023-03-29T03:45:21;11.25;;;5.70;;
44508;SDS011;30214;52.246;14.408;2023-03-29T03:47:54;11.05;;;4.97;;
44508;SDS011;30214;52.246;14.408;2023-03-29T03:51:04;15.40;;;5.47;;
44508;SDS011;30214;52.246;14.408;2023-03-29T03:53:54;12.00;;;4.93;;
44508;SDS011;30214;52.246;14.408;2023-03-29T03:56:33;12.63;;;5.65;;
44508;SDS011;30214;52.246;14.408;2023-03-29T03:59:37;12.65;;;5.00;;
44508;SDS011;30214;52.246;14.408;2023-03-29T04:02:29;10.68;;;5.20;;
44508;SDS011;30214;52.246;14.408;2023-03-29T04:05:08;14.75;;;4.90;;
44508;SDS011;30214;52.246;14.408;2023-03-29T04:07:40;11.13;;;5.15;;
44508;SDS011;30214;52.246;14.408;2023-03-29T04:10:50;13.18;;;4.95;;
44508;SDS011;30214;52.246;14.408;2023-03-29T04:13:41;10.93;;;5.57;;
44508;SDS011;30214;52.246;14.408;2023-03-29T04:16:29;14.02;;;6.30;;
44508;SDS011;30214;52.246;14.408;2023-03-29T04:21:49;13.55;;;5.45;;
44508;SDS011;30214;52.246;14.408;2023-03-29T04:24:18;14.35;;;5.82;;
44508;SDS011;30214;52.246;14.408;2023-03-29T04:27:04;13.57;;;5.60;;
44508;SDS011;30214;52.246;14.408;2023-03-29T04:29:31;13.52;;;5.72;;
44508;SDS011;30214;52.246;14.408;2023-03-29T04:32:12;15.23;;;6.00;;
44508;SDS011;30214;52.246;14.408;2023-03-29T04:34:46;16.83;;;6.20;;
44508;SDS011;30214;52.246;14.408;2023-03-29T04:37:13;15.95;;;6.78;;
44508;SDS011;30214;52.246;14.408;2023-03-29T04:39:42;16.88;;;7.93;;
44508;SDS011;30214;52.246;14.408;2023-03-29T04:42:09;13.18;;;6.43;;
44508;SDS011;30214;52.246;14.408;2023-03-29T04:44:36;14.73;;;7.07;;
44508;SDS011;30214;52.246;14.408;2023-03-29T04:47:07;16.95;;;8.00;;
44508;SDS011;30214;52.246;14.408;2023-03-29T04:49:58;17.80;;;8.27;;
44508;SDS011;30214;52.246;14.408;2023-03-29T04:52:36;24.80;;;8.52;;
44508;SDS011;30214;52.246;14.408;2023-03-29T04:55:07;20.63;;;7.68;;
44508;SDS011;30214;52.246;14.408;2023-03-29T04:57:56;15.23;;;7.43;;
44508;SDS011;30214;52.246;14.408;2023-03-29T05:00:29;19.15;;;7.10;;
44508;SDS011;30214;52.246;14.408;2023-03-29T05:03:00;17.27;;;8.10;;
44508;SDS011;30214;52.246;14.408;2023-03-29T05:05:31;19.25;;;7.50;;
44508;SDS011;30214;52.246;14.408;2023-03-29T05:08:01;18.98;;;8.40;;
44508;SDS011;30214;52.246;14.408;2023-03-29T05:10:48;24.30;;;13.15;;
44508;SDS011;30214;52.246;14.408;2023-03-29T05:13:16;27.45;;;11.73;;
44508;SDS011;30214;52.246;14.408;2023-03-29T05:15:44;25.13;;;13.70;;
44508;SDS011;30214;52.246;14.408;2023-03-29T05:18:11;26.45;;;13.43;;
44508;SDS011;30214;52.246;14.408;2023-03-29T05:20:39;24.65;;;12.02;;
44508;SDS011;30214;52.246;14.408;2023-03-29T05:23:08;36.63;;;17.08;;
44508;SDS011;30214;52.246;14.408;2023-03-29T05:26:01;43.88;;;20.50;;
44508;SDS011;30214;52.246;14.408;2023-03-29T05:28:29;67.65;;;35.67;;
44508;SDS011;30214;52.246;14.408;2023-03-29T05:30:59;37.20;;;21.33;;
44508;SDS011;30214;52.246;14.408;2023-03-29T05:33:28;26.00;;;14.93;;
44508;SDS011;30214;52.246;14.408;2023-03-29T05:36:00;30.20;;;12.23;;
44508;SDS011;30214;52.246;14.408;2023-03-29T05:38:28;21.83;;;11.23;;
44508;SDS011;30214;52.246;14.408;2023-03-29T05:40:57;19.08;;;9.38;;
44508;SDS011;30214;52.246;14.408;2023-03-29T05:43:28;16.50;;;7.97;;
44508;SDS011;30214;52.246;14.408;2023-03-29T05:45:56;20.38;;;8.02;;
44508;SDS011;30214;52.246;14.408;2023-03-29T05:48:24;17.75;;;6.47;;
44508;SDS011;30214;52.246;14.408;2023-03-29T05:50:53;16.05;;;6.85;;
44508;SDS011;30214;52.246;14.408;2023-03-29T05:53:22;17.95;;;7.13;;
44508;SDS011;30214;52.246;14.408;2023-03-29T05:55:52;16.42;;;7.18;;
44508;SDS011;30214;52.246;14.408;2023-03-29T05:58:21;14.65;;;6.32;;
44508;SDS011;30214;52.246;14.408;2023-03-29T06:00:52;26.42;;;7.53;;
44508;SDS011;30214;52.246;14.408;2023-03-29T06:03:40;15.75;;;6.05;;
44508;SDS011;30214;52.246;14.408;2023-03-29T06:06:07;18.92;;;8.02;;
44508;SDS011;30214;52.246;14.408;2023-03-29T06:08:42;16.25;;;7.15;;
44508;SDS011;30214;52.246;14.408;2023-03-29T06:11:25;14.55;;;6.90;;
44508;SDS011;30214;52.246;14.408;2023-03-29T06:14:11;18.85;;;8.18;;
44508;SDS011;30214;52.246;14.408;2023-03-29T06:16:45;15.57;;;7.97;;
44508;SDS011;30214;52.246;14.408;2023-03-29T06:19:14;19.80;;;7.13;;
44508;SDS011;30214;52.246;14.408;2023-03-29T06:21:42;19.33;;;7.47;;
44508;SDS011;30214;52.246;14.408;2023-03-29T06:24:13;15.93;;;6.88;;
44508;SDS011;30214;52.246;14.408;2023-03-29T06:26:47;16.60;;;6.75;;
44508;SDS011;30214;52.246;14.408;2023-03-29T06:29:15;13.82;;;7.07;;
44508;SDS011;30214;52.246;14.408;2023-03-29T06:31:46;14.88;;;5.90;;
44508;SDS011;30214;52.246;14.408;2023-03-29T06:34:34;12.68;;;6.03;;
44508;SDS011;30214;52.246;14.408;2023-03-29T06:37:19;19.55;;;6.93;;
44508;SDS011;30214;52.246;14.408;2023-03-29T06:39:55;15.15;;;6.38;;
44508;SDS011;30214;52.246;14.408;2023-03-29T06:42:29;17.98;;;6.82;;
44508;SDS011;30214;52.246;14.408;2023-03-29T06:45:24;13.98;;;6.78;;
44508;SDS011;30214;52.246;14.408;2023-03-29T06:47:54;17.67;;;6.28;;
44508;SDS011;30214;52.246;14.408;2023-03-29T06:50:22;11.65;;;6.10;;
44508;SDS011;30214;52.246;14.408;2023-03-29T06:53:05;17.90;;;6.30;;
44508;SDS011;30214;52.246;14.408;2023-03-29T06:55:34;15.30;;;6.35;;
44508;SDS011;30214;52.246;14.408;2023-03-29T06:58:21;16.50;;;6.40;;
44508;SDS011;30214;52.246;14.408;2023-03-29T07:00:51;15.07;;;6.13;;
44508;SDS011;30214;52.246;14.408;2023-03-29T07:03:30;15.32;;;7.10;;
44508;SDS011;30214;52.246;14.408;2023-03-29T07:06:00;18.00;;;6.88;;
44508;SDS011;30214;52.246;14.408;2023-03-29T07:08:35;20.40;;;7.70;;
44508;SDS011;30214;52.246;14.408;2023-03-29T07:11:14;15.85;;;8.55;;
44508;SDS011;30214;52.246;14.408;2023-03-29T07:13:54;15.68;;;6.70;;
44508;SDS011;30214;52.246;14.408;2023-03-29T07:16:22;11.55;;;5.28;;
44508;SDS011;30214;52.246;14.408;2023-03-29T07:19:05;11.27;;;5.93;;
44508;SDS011;30214;52.246;14.408;2023-03-29T07:21:53;15.82;;;5.15;;
44508;SDS011;30214;52.246;14.408;2023-03-29T07:24:31;13.85;;;4.47;;
44508;SDS011;30214;52.246;14.408;2023-03-29T07:26:58;11.30;;;3.80;;
44508;SDS011;30214;52.246;14.408;2023-03-29T07:29:26;13.05;;;4.53;;
44508;SDS011;30214;52.246;14.408;2023-03-29T07:31:55;10.00;;;3.97;;
44508;SDS011;30214;52.246;14.408;2023-03-29T07:34:49;11.73;;;3.83;;
44508;SDS011;30214;52.246;14.408;2023-03-29T07:37:30;11.38;;;2.80;;
44508;SDS011;30214;52.246;14.408;2023-03-29T07:39:58;7.65;;;2.60;;
44508;SDS011;30214;52.246;14.408;2023-03-29T07:42:47;7.30;;;2.60;;
44508;SDS011;30214;52.246;14.408;2023-03-29T07:45:18;9.32;;;2.53;;
44508;SDS011;30214;52.246;14.408;2023-03-29T07:47:59;6.13;;;2.25;;
44508;SDS011;30214;52.246;14.408;2023-03-29T07:50:40;9.68;;;2.90;;
44508;SDS011;30214;52.246;14.408;2023-03-29T07:53:07;7.15;;;2.50;;
44508;SDS011;30214;52.246;14.408;2023-03-29T07:55:34;8.52;;;2.67;;
44508;SDS011;30214;52.246;14.408;2023-03-29T07:58:18;9.13;;;2.53;;
44508;SDS011;30214;52.246;14.408;2023-03-29T08:00:46;8.27;;;2.50;;
44508;SDS011;30214;52.246;14.408;2023-03-29T08:03:39;8.98;;;2.22;;
44508;SDS011;30214;52.246;14.408;2023-03-29T08:06:07;4.47;;;2.35;;
44508;SDS011;30214;52.246;14.408;2023-03-29T08:08:35;9.05;;;2.65;;
44508;SDS011;30214;52.246;14.408;2023-03-29T08:11:08;9.93;;;2.60;;
44508;SDS011;30214;52.246;14.408;2023-03-29T08:13:54;9.35;;;2.72;;
44508;SDS011;30214;52.246;14.408;2023-03-29T08:16:41;7.90;;;2.50;;
44508;SDS011;30214;52.246;14.408;2023-03-29T08:19:12;6.07;;;2.22;;
44508;SDS011;30214;52.246;14.408;2023-03-29T08:22:04;6.82;;;2.53;;
44508;SDS011;30214;52.246;14.408;2023-03-29T08:24:55;7.78;;;2.55;;
44508;SDS011;30214;52.246;14.408;2023-03-29T08:27:26;8.70;;;2.70;;
44508;SDS011;30214;52.246;14.408;2023-03-29T08:29:54;9.13;;;3.50;;
44508;SDS011;30214;52.246;14.408;2023-03-29T08:32:22;7.38;;;2.55;;
44508;SDS011;30214;52.246;14.408;2023-03-29T08:34:53;7.97;;;2.40;;
44508;SDS011;30214;52.246;14.408;2023-03-29T08:37:27;9.23;;;3.00;;
44508;SDS011;30214;52.246;14.408;2023-03-29T08:39:57;8.07;;;2.38;;
44508;SDS011;30214;52.246;14.408;2023-03-29T08:43:19;7.38;;;2.40;;
44508;SDS011;30214;52.246;14.408;2023-03-29T08:46:26;7.47;;;2.80;;
44508;SDS011;30214;52.246;14.408;2023-03-29T08:49:16;8.52;;;2.72;;
44508;SDS011;30214;52.246;14.408;2023-03-29T08:51:51;6.45;;;2.50;;
44508;SDS011;30214;52.246;14.408;2023-03-29T08:54:39;14.57;;;2.42;;
44508;SDS011;30214;52.246;14.408;2023-03-29T08:57:36;6.78;;;2.50;;
44508;SDS011;30214;52.246;14.408;2023-03-29T09:00:19;9.52;;;2.97;;
44508;SDS011;30214;52.246;14.408;2023-03-29T09:02:54;7.80;;;2.63;;
44508;SDS011;30214;52.246;14.408;2023-03-29T09:05:28;5.22;;;2.20;;
44508;SDS011;30214;52.246;14.408;2023-03-29T09:08:10;6.00;;;2.40;;
44508;SDS011;30214;52.246;14.408;2023-03-29T09:10:44;10.50;;;2.92;;
44508;SDS011;30214;52.246;14.408;2023-03-29T09:13:23;9.93;;;2.78;;
44508;SDS011;30214;52.246;14.408;2023-03-29T09:16:03;8.07;;;2.58;;
44508;SDS011;30214;52.246;14.408;2023-03-29T09:18:46;8.35;;;2.42;;
44508;SDS011;30214;52.246;14.408;2023-03-29T09:21:32;4.88;;;2.30;;
44508;SDS011;30214;52.246;14.408;2023-03-29T09:24:13;10.57;;;2.60;;
44508;SDS011;30214;52.246;14.408;2023-03-29T09:27:17;5.53;;;2.50;;
44508;SDS011;30214;52.246;14.408;2023-03-29T09:30:12;6.50;;;2.67;;
44508;SDS011;30214;52.246;14.408;2023-03-29T09:32:56;6.63;;;2.47;;
44508;SDS011;30214;52.246;14.408;2023-03-29T09:35:44;7.80;;;2.58;;
44508;SDS011;30214;52.246;14.408;2023-03-29T09:40:47;6.43;;;2.58;;
44508;SDS011;30214;52.246;14.408;2023-03-29T09:43:26;4.80;;;2.22;;
44508;SDS011;30214;52.246;14.408;2023-03-29T09:45:59;7.43;;;2.80;;
44508;SDS011;30214;52.246;14.408;2023-03-29T09:48:35;6.25;;;2.40;;
44508;SDS011;30214;52.246;14.408;2023-03-29T09:51:07;6.00;;;2.53;;
44508;SDS011;30214;52.246;14.408;2023-03-29T09:53:40;5.88;;;2.50;;
44508;SDS011;30214;52.246;14.408;2023-03-29T09:56:27;10.90;;;2.50;;
44508;SDS011;30214;52.246;14.408;2023-03-29T09:59:08;6.30;;;2.58;;
44508;SDS011;30214;52.246;14.408;2023-03-29T10:01:43;5.25;;;2.60;;
44508;SDS011;30214;52.246;14.408;2023-03-29T10:04:13;6.13;;;2.85;;
44508;SDS011;30214;52.246;14.408;2023-03-29T10:06:47;7.78;;;2.88;;
44508;SDS011;30214;52.246;14.408;2023-03-29T10:09:21;7.40;;;3.42;;
44508;SDS011;30214;52.246;14.408;2023-03-29T10:11:59;9.27;;;2.90;;
44508;SDS011;30214;52.246;14.408;2023-03-29T10:14:36;7.18;;;2.60;;
44508;SDS011;30214;52.246;14.408;2023-03-29T10:17:11;5.90;;;2.58;;
44508;SDS011;30214;52.246;14.408;2023-03-29T10:19:46;5.20;;;2.60;;
44508;SDS011;30214;52.246;14.408;2023-03-29T10:22:15;7.50;;;3.45;;
44508;SDS011;30214;52.246;14.408;2023-03-29T10:24:47;5.88;;;2.63;;
44508;SDS011;30214;52.246;14.408;2023-03-29T10:27:17;7.05;;;3.00;;
44508;SDS011;30214;52.246;14.408;2023-03-29T10:29:50;6.75;;;3.10;;
44508;SDS011;30214;52.246;14.408;2023-03-29T10:32:22;7.43;;;3.10;;
44508;SDS011;30214;52.246;14.408;2023-03-29T10:34:58;8.95;;;2.70;;
44508;SDS011;30214;52.246;14.408;2023-03-29T10:37:31;8.75;;;3.72;;
44508;SDS011;30214;52.246;14.408;2023-03-29T10:39:59;9.38;;;3.42;;
44508;SDS011;30214;52.246;14.408;2023-03-29T10:42:26;9.30;;;4.70;;
44508;SDS011;30214;52.246;14.408;2023-03-29T10:44:56;12.95;;;5.25;;
44508;SDS011;30214;52.246;14.408;2023-03-29T10:47:24;10.55;;;5.18;;
44508;SDS011;30214;52.246;14.408;2023-03-29T10:49:58;7.55;;;3.10;;
44508;SDS011;30214;52.246;14.408;2023-03-29T10:52:25;6.68;;;2.80;;
44508;SDS011;30214;52.246;14.408;2023-03-29T10:54:55;5.63;;;2.90;;
44508;SDS011;30214;52.246;14.408;2023-03-29T10:57:25;7.55;;;2.70;;
44508;SDS011;30214;52.246;14.408;2023-03-29T11:00:02;7.00;;;2.60;;
44508;SDS011;30214;52.246;14.408;2023-03-29T11:02:44;6.15;;;3.08;;
44508;SDS011;30214;52.246;14.408;2023-03-29T11:05:33;5.45;;;2.55;;
44508;SDS011;30214;52.246;14.408;2023-03-29T11:08:12;6.07;;;2.67;;
44508;SDS011;30214;52.246;14.408;2023-03-29T11:11:01;6.95;;;3.30;;
44508;SDS011;30214;52.246;14.408;2023-03-29T11:13:46;10.30;;;4.55;;
44508;SDS011;30214;52.246;14.408;2023-03-29T11:16:24;6.57;;;2.70;;
44508;SDS011;30214;52.246;14.408;2023-03-29T11:19:02;9.85;;;2.88;;
44508;SDS011;30214;52.246;14.408;2023-03-29T11:21:48;8.02;;;3.30;;
44508;SDS011;30214;52.246;14.408;2023-03-29T11:24:32;7.65;;;3.17;;
44508;SDS011;30214;52.246;14.408;2023-03-29T11:27:15;6.97;;;2.83;;
44508;SDS011;30214;52.246;14.408;2023-03-29T11:29:57;12.63;;;3.58;;
44508;SDS011;30214;52.246;14.408;2023-03-29T11:32:35;8.20;;;2.97;;
44508;SDS011;30214;52.246;14.408;2023-03-29T11:38:20;6.22;;;3.45;;
44508;SDS011;30214;52.246;14.408;2023-03-29T11:40:55;5.60;;;3.10;;
44508;SDS011;30214;52.246;14.408;2023-03-29T11:43:29;5.05;;;3.00;;
44508;SDS011;30214;52.246;14.408;2023-03-29T11:48:37;7.15;;;3.85;;
44508;SDS011;30214;52.246;14.408;2023-03-29T11:51:12;6.90;;;3.10;;
44508;SDS011;30214;52.246;14.408;2023-03-29T11:53:47;6.72;;;3.38;;
44508;SDS011;30214;52.246;14.408;2023-03-29T11:56:23;5.43;;;3.20;;
44508;SDS011;30214;52.246;14.408;2023-03-29T11:58:57;6.68;;;3.30;;
44508;SDS011;30214;52.246;14.408;2023-03-29T12:01:32;7.75;;;3.53;;
44508;SDS011;30214;52.246;14.408;2023-03-29T12:04:05;7.78;;;3.40;;
44508;SDS011;30214;52.246;14.408;2023-03-29T12:06:39;8.05;;;3.03;;
44508;SDS011;30214;52.246;14.408;2023-03-29T12:09:16;5.72;;;3.20;;
44508;SDS011;30214;52.246;14.408;2023-03-29T12:11:53;5.57;;;3.25;;
44508;SDS011;30214;52.246;14.408;2023-03-29T12:16:58;5.78;;;3.00;;
44508;SDS011;30214;52.246;14.408;2023-03-29T12:19:33;5.97;;;3.72;;
44508;SDS011;30214;52.246;14.408;2023-03-29T12:24:38;6.05;;;3.25;;
44508;SDS011;30214;52.246;14.408;2023-03-29T12:27:19;6.65;;;3.40;;
44508;SDS011;30214;52.246;14.408;2023-03-29T12:30:00;6.32;;;2.95;;
44508;SDS011;30214;52.246;14.408;2023-03-29T12:32:56;6.65;;;2.85;;
44508;SDS011;30214;52.246;14.408;2023-03-29T12:35:56;5.97;;;2.55;;
44508;SDS011;30214;52.246;14.408;2023-03-29T12:39:00;9.55;;;3.25;;
44508;SDS011;30214;52.246;14.408;2023-03-29T12:41:46;6.68;;;3.35;;
44508;SDS011;30214;52.246;14.408;2023-03-29T12:44:36;7.40;;;3.00;;
44508;SDS011;30214;52.246;14.408;2023-03-29T12:47:25;9.02;;;3.35;;
44508;SDS011;30214;52.246;14.408;2023-03-29T12:49:58;5.85;;;3.20;;
44508;SDS011;30214;52.246;14.408;2023-03-29T12:52:30;5.03;;;2.85;;
44508;SDS011;30214;52.246;14.408;2023-03-29T12:55:00;5.57;;;2.95;;
44508;SDS011;30214;52.246;14.408;2023-03-29T12:57:44;6.73;;;3.00;;
44508;SDS011;30214;52.246;14.408;2023-03-29T13:00:30;5.80;;;3.22;;
44508;SDS011;30214;52.246;14.408;2023-03-29T13:03:20;5.07;;;2.75;;
44508;SDS011;30214;52.246;14.408;2023-03-29T13:05:59;4.60;;;2.75;;
44508;SDS011;30214;52.246;14.408;2023-03-29T13:08:33;4.50;;;2.85;;
44508;SDS011;30214;52.246;14.408;2023-03-29T13:11:02;4.07;;;2.63;;
44508;SDS011;30214;52.246;14.408;2023-03-29T13:13:32;5.97;;;3.20;;
44508;SDS011;30214;52.246;14.408;2023-03-29T13:16:10;6.35;;;3.00;;
44508;SDS011;30214;52.246;14.408;2023-03-29T13:18:49;4.38;;;2.83;;
44508;SDS011;30214;52.246;14.408;2023-03-29T13:21:44;7.80;;;2.83;;
44508;SDS011;30214;52.246;14.408;2023-03-29T13:24:35;5.10;;;3.10;;
44508;SDS011;30214;52.246;14.408;2023-03-29T13:27:27;5.13;;;3.13;;
44508;SDS011;30214;52.246;14.408;2023-03-29T13:33:12;5.72;;;2.90;;
44508;SDS011;30214;52.246;14.408;2023-03-29T13:35:52;7.57;;;3.10;;
44508;SDS011;30214;52.246;14.408;2023-03-29T13:38:25;7.10;;;3.38;;
44508;SDS011;30214;52.246;14.408;2023-03-29T13:41:04;6.65;;;3.75;;
44508;SDS011;30214;52.246;14.408;2023-03-29T13:43:50;6.82;;;3.33;;
44508;SDS011;30214;52.246;14.408;2023-03-29T13:46:21;6.00;;;3.45;;
44508;SDS011;30214;52.246;14.408;2023-03-29T13:48:57;8.82;;;3.20;;
44508;SDS011;30214;52.246;14.408;2023-03-29T13:51:32;4.57;;;3.30;;
44508;SDS011;30214;52.246;14.408;2023-03-29T13:56:57;6.80;;;3.25;;
44508;SDS011;30214;52.246;14.408;2023-03-29T13:59:31;6.47;;;3.03;;
44508;SDS011;30214;52.246;14.408;2023-03-29T14:02:03;5.55;;;2.80;;
44508;SDS011;30214;52.246;14.408;2023-03-29T14:04:40;6.70;;;3.00;;
44508;SDS011;30214;52.246;14.408;2023-03-29T14:07:13;6.45;;;3.40;;
44508;SDS011;30214;52.246;14.408;2023-03-29T14:09:42;4.65;;;2.97;;
44508;SDS011;30214;52.246;14.408;2023-03-29T14:12:13;4.93;;;3.17;;
44508;SDS011;30214;52.246;14.408;2023-03-29T14:14:41;6.70;;;3.20;;
44508;SDS011;30214;52.246;14.408;2023-03-29T14:17:15;4.88;;;3.05;;
44508;SDS011;30214;52.246;14.408;2023-03-29T14:19:46;9.98;;;4.05;;
44508;SDS011;30214;52.246;14.408;2023-03-29T14:22:15;4.22;;;2.72;;
44508;SDS011;30214;52.246;14.408;2023-03-29T14:24:46;4.65;;;3.17;;
44508;SDS011;30214;52.246;14.408;2023-03-29T14:27:19;4.30;;;2.55;;
44508;SDS011;30214;52.246;14.408;2023-03-29T14:29:48;6.50;;;3.10;;
44508;SDS011;30214;52.246;14.408;2023-03-29T14:32:19;6.20;;;3.25;;
44508;SDS011;30214;52.246;14.408;2023-03-29T14:34:53;6.45;;;2.95;;
44508;SDS011;30214;52.246;14.408;2023-03-29T14:37:22;8.70;;;2.60;;
44508;SDS011;30214;52.246;14.408;2023-03-29T14:39:51;7.65;;;3.17;;
44508;SDS011;30214;52.246;14.408;2023-03-29T14:42:22;4.38;;;2.50;;
44508;SDS011;30214;52.246;14.408;2023-03-29T14:44:56;4.70;;;2.87;;
44508;SDS011;30214;52.246;14.408;2023-03-29T14:47:28;8.13;;;3.30;;
44508;SDS011;30214;52.246;14.408;2023-03-29T14:50:01;5.35;;;2.90;;
44508;SDS011;30214;52.246;14.408;2023-03-29T14:52:29;6.22;;;3.20;;
44508;SDS011;30214;52.246;14.408;2023-03-29T14:54:57;4.85;;;3.10;;
44508;SDS011;30214;52.246;14.408;2023-03-29T14:57:31;7.57;;;3.35;;
44508;SDS011;30214;52.246;14.408;2023-03-29T15:00:03;4.70;;;3.08;;
44508;SDS011;30214;52.246;14.408;2023-03-29T15:02:52;4.45;;;2.70;;
44508;SDS011;30214;52.246;14.408;2023-03-29T15:05:24;5.25;;;2.60;;
44508;SDS011;30214;52.246;14.408;2023-03-29T15:08:02;6.15;;;2.80;;
44508;SDS011;30214;52.246;14.408;2023-03-29T15:10:31;6.68;;;2.63;;
44508;SDS011;30214;52.246;14.408;2023-03-29T15:13:02;5.25;;;3.00;;
44508;SDS011;30214;52.246;14.408;2023-03-29T15:15:32;4.70;;;2.90;;
44508;SDS011;30214;52.246;14.408;2023-03-29T15:18:02;4.05;;;2.60;;
44508;SDS011;30214;52.246;14.408;2023-03-29T15:20:32;6.10;;;2.60;;
44508;SDS011;30214;52.246;14.408;2023-03-29T15:23:06;7.32;;;2.95;;
44508;SDS011;30214;52.246;14.408;2023-03-29T15:25:46;8.23;;;3.03;;
44508;SDS011;30214;52.246;14.408;2023-03-29T15:28:23;5.68;;;3.40;;
44508;SDS011;30214;52.246;14.408;2023-03-29T15:30:58;5.10;;;2.90;;
44508;SDS011;30214;52.246;14.408;2023-03-29T15:33:31;5.40;;;3.30;;
44508;SDS011;30214;52.246;14.408;2023-03-29T15:36:01;5.93;;;3.30;;
44508;SDS011;30214;52.246;14.408;2023-03-29T15:38:30;7.38;;;3.20;;
44508;SDS011;30214;52.246;14.408;2023-03-29T15:40:58;5.45;;;2.80;;
44508;SDS011;30214;52.246;14.408;2023-03-29T15:43:27;7.30;;;3.00;;
44508;SDS011;30214;52.246;14.408;2023-03-29T15:45:55;6.28;;;3.00;;
44508;SDS011;30214;52.246;14.408;2023-03-29T15:48:23;7.72;;;3.60;;
44508;SDS011;30214;52.246;14.408;2023-03-29T15:50:52;7.20;;;3.60;;
44508;SDS011;30214;52.246;14.408;2023-03-29T15:53:20;27.15;;;10.63;;